createdAt,value
2018-02-20T00:00:23.896Z,67.63
2018-02-20T00:02:50.215Z,55.87
2018-02-20T00:05:16.543Z,53.83
2018-02-20T00:07:42.838Z,52.80
2018-02-20T00:10:09.110Z,52.20
2018-02-20T00:12:35.382Z,59.77
2018-02-20T00:15:02.408Z,58.47
2018-02-20T00:17:28.687Z,59.60
2018-02-20T00:19:54.972Z,61.87
2018-02-20T00:22:21.965Z,58.23
2018-02-20T00:24:48.247Z,56.50
2018-02-20T00:27:14.536Z,51.77
2018-02-20T00:29:40.814Z,56.63
2018-02-20T00:32:07.814Z,61.07
2018-02-20T00:34:34.081Z,65.53
2018-02-20T00:37:00.342Z,58.80
2018-02-20T00:39:26.630Z,71.07
2018-02-20T00:41:52.882Z,53.57
2018-02-20T00:44:19.914Z,61.37
2018-02-20T00:46:46.168Z,76.93
2018-02-20T00:49:12.428Z,57.67
2018-02-20T00:51:38.695Z,63.43
2018-02-20T00:54:04.970Z,61.50
2018-02-20T00:56:31.245Z,60.03
2018-02-20T00:58:57.514Z,68.37
2018-02-20T01:01:24.550Z,72.27
2018-02-20T01:03:50.840Z,59.03
2018-02-20T01:06:17.089Z,58.20
2018-02-20T01:08:43.349Z,62.53
2018-02-20T01:11:10.359Z,58.83
2018-02-20T01:13:36.668Z,61.63
2018-02-20T01:16:02.955Z,58.57
2018-02-20T01:18:29.265Z,57.73
2018-02-20T01:20:55.524Z,60.70
2018-02-20T01:23:21.854Z,63.37
2018-02-20T01:25:48.141Z,65.47
2018-02-20T01:28:14.443Z,61.13
2018-02-20T01:30:40.710Z,57.80
2018-02-20T01:33:06.991Z,66.80
2018-02-20T01:35:33.251Z,56.57
2018-02-20T01:37:59.531Z,58.33
2018-02-20T01:40:26.548Z,61.40
2018-02-20T01:42:52.800Z,61.10
2018-02-20T01:45:19.780Z,59.13
2018-02-20T01:47:46.051Z,60.23
2018-02-20T01:50:12.419Z,63.40
2018-02-20T01:52:39.409Z,50.80
2018-02-20T01:55:05.693Z,54.70
2018-02-20T01:57:32.700Z,62.07
2018-02-20T01:59:58.991Z,68.23
2018-02-20T02:02:25.348Z,61.03
2018-02-20T02:04:51.702Z,62.23
2018-02-20T02:07:18.045Z,59.00
2018-02-20T02:09:44.302Z,59.30
2018-02-20T02:12:11.331Z,63.63
2018-02-20T02:14:37.612Z,64.47
2018-02-20T02:17:03.890Z,61.03
2018-02-20T02:19:30.936Z,61.40
2018-02-20T02:21:57.207Z,62.20
2018-02-20T02:24:23.475Z,65.17
2018-02-20T02:26:49.705Z,53.20
2018-02-20T02:29:15.960Z,53.43
2018-02-20T02:31:42.256Z,64.47
2018-02-20T02:34:08.516Z,68.80
2018-02-20T02:36:35.718Z,64.53
2018-02-20T02:39:02.055Z,76.17
2018-02-20T02:41:28.320Z,71.53
2018-02-20T02:43:54.580Z,64.20
2018-02-20T02:46:20.896Z,66.00
2018-02-20T02:48:47.902Z,63.90
2018-02-20T02:51:14.155Z,64.80
2018-02-20T02:53:40.406Z,62.90
2018-02-20T02:56:06.687Z,71.17
2018-02-20T02:58:32.932Z,68.97
2018-02-20T03:00:59.171Z,58.70
2018-02-20T03:03:25.444Z,66.57
2018-02-20T03:05:51.721Z,67.77
2018-02-20T03:08:17.949Z,64.63
2018-02-20T03:10:44.208Z,62.47
2018-02-20T03:13:11.222Z,57.97
2018-02-20T03:15:37.471Z,70.13
2018-02-20T03:18:03.773Z,61.27
2018-02-20T03:20:30.100Z,63.47
2018-02-20T03:22:56.413Z,59.00
2018-02-20T03:25:22.674Z,63.03
2018-02-20T03:27:48.953Z,56.10
2018-02-20T03:30:15.218Z,62.33
2018-02-20T03:32:41.548Z,69.30
2018-02-20T03:35:07.841Z,55.10
2018-02-20T03:37:34.122Z,66.97
2018-02-20T03:40:00.376Z,65.87
2018-02-20T03:42:26.701Z,58.37
2018-02-20T03:44:53.101Z,58.87
2018-02-20T03:47:19.420Z,61.10
2018-02-20T03:49:46.112Z,63.87
2018-02-20T03:52:12.412Z,67.80
2018-02-20T03:54:38.676Z,66.27
2018-02-20T03:57:05.726Z,62.30
2018-02-20T03:59:32.722Z,62.87
2018-02-20T04:01:59.011Z,64.97
2018-02-20T04:04:26.022Z,60.80
2018-02-20T04:06:52.309Z,61.33
2018-02-20T04:09:18.555Z,64.50
2018-02-20T04:11:44.852Z,66.73
2018-02-20T04:14:11.133Z,58.30
2018-02-20T04:16:37.409Z,62.60
2018-02-20T04:19:04.748Z,57.83
2018-02-20T04:21:31.009Z,53.87
2018-02-20T04:23:57.361Z,65.80
2018-02-20T04:26:23.671Z,57.97
2018-02-20T04:28:50.007Z,58.20
2018-02-20T04:31:16.408Z,72.50
2018-02-20T04:33:42.655Z,65.23
2018-02-20T04:36:09.633Z,67.73
2018-02-20T04:38:35.884Z,69.40
2018-02-20T04:41:02.226Z,71.23
2018-02-20T04:43:28.492Z,60.07
2018-02-20T04:45:54.740Z,63.67
2018-02-20T04:48:20.992Z,62.57
2018-02-20T04:50:47.264Z,69.07
2018-02-20T04:53:14.232Z,72.77
2018-02-20T04:55:40.548Z,71.67
2018-02-20T04:58:07.535Z,69.80
2018-02-20T05:00:33.759Z,62.17
2018-02-20T05:03:00.000Z,68.30
2018-02-20T05:05:26.275Z,63.83
2018-02-20T05:07:53.295Z,62.70
2018-02-20T05:10:19.590Z,64.57
2018-02-20T05:12:45.840Z,63.07
2018-02-20T05:15:12.093Z,71.27
2018-02-20T05:17:38.326Z,64.90
2018-02-20T05:20:04.623Z,73.33
2018-02-20T05:22:30.907Z,64.50
2018-02-20T05:24:57.939Z,68.00
2018-02-20T05:27:24.940Z,76.33
2018-02-20T05:29:51.215Z,62.53
2018-02-20T05:32:17.486Z,59.07
2018-02-20T05:34:43.747Z,65.30
2018-02-20T05:37:10.006Z,57.87
2018-02-20T05:39:36.259Z,62.73
2018-02-20T05:42:02.516Z,63.80
2018-02-20T05:44:28.769Z,56.50
2018-02-20T05:46:55.018Z,60.00
2018-02-20T05:49:21.256Z,76.60
2018-02-20T05:51:48.244Z,62.40
2018-02-20T05:54:14.485Z,62.53
2018-02-20T05:56:40.780Z,62.43
2018-02-20T05:59:07.786Z,58.30
2018-02-20T06:01:34.150Z,65.40
2018-02-20T06:04:01.166Z,73.30
2018-02-20T06:06:27.448Z,63.30
2018-02-20T06:08:53.725Z,74.87
2018-02-20T06:11:20.009Z,62.93
2018-02-20T06:13:46.254Z,64.40
2018-02-20T06:16:12.491Z,73.03
2018-02-20T06:18:38.752Z,62.87
2018-02-20T06:21:05.024Z,74.00
2018-02-20T06:23:31.261Z,62.33
2018-02-20T06:25:57.517Z,65.10
2018-02-20T06:28:23.766Z,65.57
2018-02-20T06:30:49.985Z,61.20
2018-02-20T06:33:16.223Z,59.97
2018-02-20T06:35:42.511Z,75.83
2018-02-20T06:38:08.750Z,64.73
2018-02-20T06:40:35.000Z,68.00
2018-02-20T06:43:01.252Z,78.63
2018-02-20T06:45:27.511Z,69.03
2018-02-20T06:47:53.760Z,77.30
2018-02-20T06:50:20.030Z,74.57
2018-02-20T06:52:46.314Z,71.10
2018-02-20T06:55:12.648Z,75.43
2018-02-20T06:57:38.888Z,68.63
2018-02-20T07:00:05.176Z,66.77
2018-02-20T07:02:32.194Z,82.07
2018-02-20T07:04:58.437Z,73.23
2018-02-20T07:07:24.681Z,57.93
2018-02-20T07:09:51.673Z,64.50
2018-02-20T07:12:17.960Z,76.20
2018-02-20T07:14:44.933Z,71.00
2018-02-20T07:17:11.169Z,63.87
2018-02-20T07:19:37.541Z,69.77
2018-02-20T07:22:03.821Z,65.20
2018-02-20T07:24:30.057Z,67.07
2018-02-20T07:26:56.307Z,70.10
2018-02-20T07:29:22.606Z,60.17
2018-02-20T07:31:48.917Z,69.80
2018-02-20T07:34:15.924Z,72.37
2018-02-20T07:36:42.156Z,69.50
2018-02-20T07:39:08.422Z,69.60
2018-02-20T07:41:35.427Z,72.70
2018-02-20T07:44:01.666Z,67.10
2018-02-20T07:46:27.944Z,67.07
2018-02-20T07:48:54.204Z,68.20
2018-02-20T07:51:20.470Z,69.00
2018-02-20T07:53:46.692Z,69.83
2018-02-20T07:56:12.927Z,70.43
2018-02-20T07:58:39.210Z,68.90
2018-02-20T08:01:05.530Z,67.30
2018-02-20T08:03:31.779Z,74.10
2018-02-20T08:05:58.064Z,74.70
2018-02-20T08:08:25.046Z,66.17
2018-02-20T08:10:51.330Z,69.27
2018-02-20T08:13:17.557Z,71.00
2018-02-20T08:15:43.827Z,71.53
2018-02-20T08:18:10.065Z,62.83
2018-02-20T08:20:36.333Z,68.40
2018-02-20T08:23:02.588Z,62.90
2018-02-20T08:25:29.638Z,65.80
2018-02-20T08:27:56.653Z,61.00
2018-02-20T08:30:22.947Z,68.53
2018-02-20T08:32:49.231Z,68.07
2018-02-20T08:35:15.515Z,63.63
2018-02-20T08:37:41.797Z,63.03
2018-02-20T08:40:08.810Z,65.73
2018-02-20T08:42:35.069Z,58.73
2018-02-20T08:45:01.363Z,63.83
2018-02-20T08:47:28.395Z,54.90
2018-02-20T08:49:54.688Z,61.93
2018-02-20T08:52:21.680Z,61.07
2018-02-20T08:54:47.968Z,68.10
2018-02-20T08:57:14.992Z,67.73
2018-02-20T08:59:41.274Z,66.47
2018-02-20T09:02:07.524Z,61.03
2018-02-20T09:04:33.770Z,67.70
2018-02-20T09:07:00.027Z,67.53
2018-02-20T09:09:27.000Z,62.27
2018-02-20T09:11:53.272Z,60.27
2018-02-20T09:14:19.568Z,63.00
2018-02-20T09:16:45.825Z,60.00
2018-02-20T09:19:12.102Z,67.07
2018-02-20T09:21:39.079Z,57.40
2018-02-20T09:24:05.356Z,61.80
2018-02-20T09:26:31.633Z,57.87
2018-02-20T09:28:57.929Z,61.33
2018-02-20T09:31:24.945Z,55.93
2018-02-20T09:33:51.167Z,54.70
2018-02-20T09:36:17.467Z,57.47
2018-02-20T09:38:43.804Z,59.30
2018-02-20T09:43:42.409Z,61.53
2018-02-20T09:46:08.673Z,54.00
2018-02-20T09:48:34.889Z,57.33
2018-02-20T09:53:34.112Z,61.77
2018-02-20T09:56:00.380Z,61.47
2018-02-20T09:58:27.430Z,59.13
2018-02-20T10:00:54.470Z,59.00
2018-02-20T10:03:21.468Z,58.87
2018-02-20T10:05:47.812Z,58.67
2018-02-20T10:08:14.045Z,52.83
2018-02-20T10:10:40.335Z,51.07
2018-02-20T10:13:06.588Z,48.47
2018-02-20T10:15:32.854Z,45.77
2018-02-20T10:17:59.106Z,52.70
2018-02-20T10:20:26.112Z,52.13
2018-02-20T10:22:52.371Z,43.53
2018-02-20T10:25:19.359Z,46.57
2018-02-20T10:27:45.605Z,45.63
2018-02-20T10:30:11.866Z,48.40
2018-02-20T10:32:38.119Z,44.47
2018-02-20T10:35:05.104Z,50.33
2018-02-20T10:37:31.341Z,44.77
2018-02-20T10:39:57.651Z,42.67
2018-02-20T10:42:23.981Z,37.90
2018-02-20T10:44:50.283Z,39.60
2018-02-20T10:47:17.350Z,47.07
2018-02-20T10:49:43.673Z,47.60
2018-02-20T10:52:09.994Z,40.40
2018-02-20T10:54:37.073Z,38.20
2018-02-20T10:57:03.394Z,37.90
2018-02-20T10:59:29.692Z,39.33
2018-02-20T11:01:56.760Z,43.60
2018-02-20T11:04:23.115Z,36.00
2018-02-20T11:06:49.425Z,36.97
2018-02-20T11:09:15.743Z,34.80
2018-02-20T11:11:42.767Z,32.17
2018-02-20T11:14:09.089Z,42.23
2018-02-20T11:16:35.429Z,33.53
2018-02-20T11:19:01.761Z,37.10
2018-02-20T11:21:28.058Z,37.70
2018-02-20T11:23:54.421Z,42.37
2018-02-20T11:26:20.725Z,34.10
2018-02-20T11:28:47.711Z,39.57
2018-02-20T11:31:14.855Z,35.97
2018-02-20T11:33:41.163Z,32.20
2018-02-20T11:36:07.636Z,38.17
2018-02-20T11:38:34.678Z,34.87
2018-02-20T11:41:01.732Z,27.13
2018-02-20T11:43:28.830Z,30.23
2018-02-20T11:45:55.209Z,28.20
2018-02-20T11:48:22.316Z,33.20
2018-02-20T11:50:48.672Z,27.87
2018-02-20T11:53:15.009Z,31.30
2018-02-20T11:55:41.406Z,26.23
2018-02-20T11:58:07.709Z,27.57
2018-02-20T12:00:34.057Z,31.50
2018-02-20T12:03:00.641Z,28.07
2018-02-20T12:05:26.969Z,33.70
2018-02-20T12:07:53.306Z,26.17
2018-02-20T12:10:19.619Z,30.40
2018-02-20T12:12:45.955Z,31.10
2018-02-20T12:15:12.331Z,26.77
2018-02-20T12:17:38.664Z,27.93
2018-02-20T12:20:04.997Z,31.03
2018-02-20T12:22:31.347Z,27.93
2018-02-20T12:24:57.684Z,26.13
2018-02-20T12:27:24.066Z,30.33
2018-02-20T12:29:51.147Z,28.83
2018-02-20T12:32:17.518Z,28.60
2018-02-20T12:34:43.814Z,27.90
2018-02-20T12:37:10.206Z,28.17
2018-02-20T12:39:36.533Z,31.27
2018-02-20T12:42:02.883Z,30.50
2018-02-20T12:44:34.354Z,26.37
2018-02-20T12:47:00.681Z,20.60
2018-02-20T12:49:27.010Z,21.97
2018-02-20T12:51:53.331Z,22.40
2018-02-20T12:54:20.407Z,24.57
2018-02-20T12:56:46.736Z,21.47
2018-02-20T12:59:13.106Z,27.27
2018-02-20T13:01:39.444Z,25.00
2018-02-20T13:04:05.808Z,23.37
2018-02-20T13:06:32.128Z,24.13
2018-02-20T13:08:58.535Z,24.83
2018-02-20T13:11:24.823Z,24.43
2018-02-20T13:13:51.152Z,22.60
2018-02-20T13:16:17.481Z,23.40
2018-02-20T13:18:43.835Z,31.07
2018-02-20T13:21:10.196Z,31.13
2018-02-20T13:23:36.544Z,28.70
2018-02-20T13:26:03.608Z,40.67
2018-02-20T13:28:29.961Z,41.07
2018-02-20T13:30:56.276Z,37.87
2018-02-20T13:33:22.596Z,40.37
2018-02-20T13:35:48.998Z,38.00
2018-02-20T13:38:15.338Z,41.90
2018-02-20T13:40:41.662Z,39.40
2018-02-20T13:43:07.992Z,41.90
2018-02-20T13:45:34.326Z,43.93
2018-02-20T13:48:01.419Z,45.77
2018-02-20T13:50:27.712Z,48.00
2018-02-20T13:52:54.040Z,43.50
2018-02-20T13:55:28.555Z,46.93
2018-02-20T13:57:54.866Z,48.13
2018-02-20T14:00:21.245Z,52.97
2018-02-20T14:02:48.406Z,42.87
2018-02-20T14:05:15.523Z,52.63
2018-02-20T14:07:41.845Z,48.17
2018-02-20T14:10:08.152Z,47.60
2018-02-20T14:12:34.471Z,43.37
2018-02-20T14:15:00.820Z,47.03
2018-02-20T14:17:27.132Z,44.90
2018-02-20T14:19:53.507Z,43.70
2018-02-20T14:22:19.918Z,44.43
2018-02-20T14:24:46.229Z,49.00
2018-02-20T14:27:12.552Z,45.23
2018-02-20T14:29:38.878Z,42.60
2018-02-20T14:32:05.212Z,44.33
2018-02-20T14:34:31.570Z,41.03
2018-02-20T14:36:57.924Z,43.33
2018-02-20T14:39:24.290Z,44.83
2018-02-20T14:41:51.384Z,36.77
2018-02-20T14:44:17.785Z,57.30
2018-02-20T14:46:44.140Z,48.17
2018-02-20T14:49:10.557Z,59.80
2018-02-20T14:51:37.699Z,70.67
2018-02-20T14:54:04.163Z,66.83
2018-02-20T14:56:30.503Z,62.57
2018-02-20T14:58:56.869Z,63.43
2018-02-20T15:01:23.244Z,66.10
2018-02-20T15:03:49.632Z,72.17
2018-02-20T15:06:16.038Z,77.90
2018-02-20T15:08:42.645Z,71.77
2018-02-20T15:11:09.012Z,72.30
2018-02-20T15:13:35.344Z,70.00
2018-02-20T15:16:01.689Z,69.00
2018-02-20T15:18:28.043Z,78.37
2018-02-20T15:20:56.018Z,81.87
2018-02-20T15:23:23.186Z,79.93
2018-02-20T15:25:49.588Z,75.17
2018-02-20T15:28:15.957Z,78.97
2018-02-20T15:30:42.404Z,80.57
2018-02-20T15:33:08.812Z,82.63
2018-02-20T15:35:35.182Z,86.50
2018-02-20T15:38:02.325Z,84.63
2018-02-20T15:40:28.697Z,90.93
2018-02-20T15:42:55.036Z,85.77
2018-02-20T15:45:21.367Z,90.30
2018-02-20T15:47:48.499Z,84.90
2018-02-20T15:50:14.884Z,90.03
2018-02-20T15:52:41.208Z,86.93
2018-02-20T15:55:07.918Z,91.30
2018-02-20T15:57:34.254Z,98.97
2018-02-20T16:00:00.639Z,122.43
2018-02-20T16:02:27.038Z,90.83
2018-02-20T16:04:53.470Z,90.40
2018-02-20T16:07:20.648Z,103.93
2018-02-20T16:09:47.217Z,89.90
2018-02-20T16:12:13.581Z,92.13
2018-02-20T16:14:39.969Z,92.80
2018-02-20T16:17:06.343Z,102.93
2018-02-20T16:19:33.419Z,91.63
2018-02-20T16:21:59.787Z,95.37
2018-02-20T16:26:59.282Z,97.23
2018-02-20T16:29:25.616Z,106.93
2018-02-20T16:31:51.996Z,108.47
2018-02-20T16:34:18.328Z,101.90
2018-02-20T16:36:44.760Z,99.47
2018-02-20T16:39:11.920Z,96.97
2018-02-20T16:41:39.158Z,99.33
2018-02-20T16:44:06.283Z,97.40
2018-02-20T16:46:32.654Z,108.20
2018-02-20T16:48:59.743Z,99.70
2018-02-20T16:51:26.126Z,92.60
2018-02-20T16:53:52.518Z,91.03
2018-02-20T16:56:18.878Z,102.47
2018-02-20T16:58:45.266Z,95.60
2018-02-20T17:01:11.944Z,94.03
2018-02-20T17:03:40.974Z,97.70
2018-02-20T17:06:07.438Z,104.07
2018-02-20T17:08:33.754Z,95.17
2018-02-20T17:11:00.119Z,101.40
2018-02-20T17:13:26.511Z,93.90
2018-02-20T17:15:53.110Z,100.97
2018-02-20T17:18:19.533Z,106.20
2018-02-20T17:20:45.949Z,90.53
2018-02-20T17:23:12.314Z,94.47
2018-02-20T17:25:38.726Z,90.13
2018-02-20T17:28:05.134Z,95.17
2018-02-20T17:30:32.254Z,105.30
2018-02-20T17:32:59.483Z,91.63
2018-02-20T17:35:25.892Z,90.47
2018-02-20T17:37:52.247Z,89.10
2018-02-20T17:40:18.602Z,83.30
2018-02-20T17:42:44.957Z,79.50
2018-02-20T17:45:11.337Z,81.87
2018-02-20T17:47:37.725Z,87.50
2018-02-20T17:50:04.105Z,77.30
2018-02-20T17:52:30.484Z,77.20
2018-02-20T17:54:56.870Z,81.43
2018-02-20T17:57:23.223Z,72.80
2018-02-20T17:59:49.560Z,89.13
2018-02-20T18:02:16.701Z,78.67
2018-02-20T18:04:43.785Z,68.03
2018-02-20T18:07:16.997Z,69.23
2018-02-20T18:09:43.377Z,71.03
2018-02-20T18:12:09.770Z,65.53
2018-02-20T18:14:36.172Z,68.30
2018-02-20T18:17:02.547Z,63.27
2018-02-20T18:19:28.915Z,69.40
2018-02-20T18:21:55.291Z,69.87
2018-02-20T18:24:21.644Z,68.87
2018-02-20T18:26:48.039Z,64.83
2018-02-20T18:29:14.362Z,70.50
2018-02-20T18:31:40.710Z,68.43
2018-02-20T18:34:07.108Z,63.07
2018-02-20T18:36:34.244Z,61.43
2018-02-20T18:39:00.586Z,58.07
2018-02-20T18:41:27.722Z,55.60
2018-02-20T18:43:54.714Z,65.63
2018-02-20T18:46:21.169Z,62.77
2018-02-20T18:48:47.656Z,63.77
2018-02-20T18:51:14.084Z,53.70
2018-02-20T18:53:40.428Z,60.10
2018-02-20T18:56:07.626Z,67.70
2018-02-20T18:58:33.988Z,63.40
2018-02-20T19:01:01.123Z,58.83
2018-02-20T19:03:27.487Z,61.13
2018-02-20T19:05:54.586Z,55.27
2018-02-20T19:08:20.954Z,57.80
2018-02-20T19:10:48.393Z,56.53
2018-02-20T19:13:15.128Z,65.77
2018-02-20T19:15:41.818Z,61.40
2018-02-20T19:18:08.220Z,61.83
2018-02-20T19:20:34.679Z,65.73
2018-02-20T19:23:01.849Z,64.33
2018-02-20T19:25:28.416Z,65.77
2018-02-20T19:27:54.938Z,59.70
2018-02-20T19:30:21.302Z,81.30
2018-02-20T19:32:48.144Z,61.73
2018-02-20T19:35:14.662Z,61.73
2018-02-20T19:37:41.123Z,66.47
2018-02-20T19:40:09.085Z,70.83
2018-02-20T19:42:35.428Z,70.93
2018-02-20T19:45:02.091Z,68.80
2018-02-20T19:47:29.614Z,65.67
2018-02-20T19:49:56.070Z,65.53
2018-02-20T19:52:23.186Z,65.37
2018-02-20T19:54:49.571Z,65.80
2018-02-20T20:00:13.262Z,66.83
2018-02-20T20:02:50.182Z,78.03
2018-02-20T20:07:56.945Z,72.67
2018-02-20T20:10:23.333Z,63.37
2018-02-20T20:12:49.720Z,75.27
2018-02-20T20:15:16.837Z,63.53
2018-02-20T20:17:43.921Z,65.73
2018-02-20T20:20:10.264Z,68.33
2018-02-20T20:22:36.618Z,71.03
2018-02-20T20:25:02.971Z,73.73
2018-02-20T20:27:31.041Z,75.43
2018-02-20T20:29:58.200Z,68.40
2018-02-20T20:32:25.305Z,74.93
2018-02-20T20:34:51.637Z,70.93
2018-02-20T20:37:17.977Z,76.90
2018-02-20T20:39:44.307Z,70.70
2018-02-20T20:42:10.747Z,89.33
2018-02-20T20:44:37.206Z,70.77
2018-02-20T20:47:04.384Z,72.67
2018-02-20T20:49:30.708Z,75.43
2018-02-20T20:51:57.051Z,71.13
2018-02-20T20:54:23.431Z,72.17
2018-02-20T20:56:49.761Z,66.70
2018-02-20T20:59:16.115Z,72.33
2018-02-20T21:01:43.241Z,66.90
2018-02-20T21:04:09.594Z,82.43
2018-02-20T21:06:36.730Z,71.13
2018-02-20T21:09:03.127Z,72.67
2018-02-20T21:11:29.487Z,79.73
2018-02-20T21:13:55.798Z,80.97
2018-02-20T21:16:22.676Z,76.87
2018-02-20T21:18:49.018Z,72.30
2018-02-20T21:21:16.137Z,76.33
2018-02-20T21:23:42.480Z,69.60
2018-02-20T21:26:08.896Z,70.67
2018-02-20T21:28:35.228Z,77.37
2018-02-20T21:31:01.532Z,74.97
2018-02-20T21:33:27.862Z,67.80
2018-02-20T21:35:54.187Z,70.90
2018-02-20T21:38:20.496Z,75.07
2018-02-20T21:40:46.834Z,67.50
2018-02-20T21:43:13.167Z,73.20
2018-02-20T21:45:39.554Z,73.43
2018-02-20T21:48:05.841Z,72.93
2018-02-20T21:50:32.157Z,76.83
2018-02-20T21:52:59.258Z,74.70
2018-02-20T21:55:25.720Z,74.37
2018-02-20T21:57:52.827Z,76.10
2018-02-20T22:00:19.163Z,72.37
2018-02-20T22:02:45.536Z,73.93
2018-02-20T22:05:12.686Z,77.93
2018-02-20T22:07:39.802Z,79.60
2018-02-20T22:10:06.890Z,78.17
2018-02-20T22:12:33.952Z,67.67
2018-02-20T22:15:00.272Z,78.63
2018-02-20T22:17:27.333Z,77.13
2018-02-20T22:19:53.671Z,83.30
2018-02-20T22:22:19.975Z,75.40
2018-02-20T22:24:47.081Z,72.73
2018-02-20T22:27:13.379Z,73.23
2018-02-20T22:29:39.751Z,72.60
2018-02-20T22:32:06.069Z,77.47
2018-02-20T22:34:32.411Z,75.83
2018-02-20T22:36:58.727Z,85.60
2018-02-20T22:39:25.121Z,77.03
2018-02-20T22:41:52.198Z,70.03
2018-02-20T22:44:18.544Z,87.97
2018-02-20T22:46:44.876Z,68.07
2018-02-20T22:49:11.316Z,67.17
2018-02-20T22:51:37.702Z,77.30
2018-02-20T22:54:04.826Z,66.83
2018-02-20T22:56:31.239Z,73.80
2018-02-20T22:58:57.622Z,64.77
2018-02-20T23:01:24.806Z,60.80
2018-02-20T23:03:51.137Z,72.43
2018-02-20T23:06:17.447Z,67.87
2018-02-20T23:08:43.794Z,69.40
2018-02-20T23:11:10.159Z,78.00
2018-02-20T23:13:36.509Z,70.93
2018-02-20T23:16:02.850Z,71.33
2018-02-20T23:18:29.900Z,70.87
2018-02-20T23:20:56.944Z,72.90
2018-02-20T23:23:24.024Z,68.10
2018-02-20T23:25:50.331Z,80.43
2018-02-20T23:28:17.373Z,71.57
2018-02-20T23:30:44.444Z,70.80
2018-02-20T23:33:10.898Z,70.97
2018-02-20T23:35:37.228Z,75.40
2018-02-20T23:38:03.538Z,72.00
2018-02-20T23:40:29.876Z,65.67
2018-02-20T23:42:56.260Z,71.33
2018-02-20T23:45:22.588Z,64.13
2018-02-20T23:47:48.930Z,67.30
2018-02-20T23:50:15.252Z,66.73
2018-02-20T23:52:42.353Z,68.57
2018-02-20T23:55:08.676Z,67.07
2018-02-20T23:57:35.133Z,74.83
